Time;durP1;ratioP1;P1;durP2;ratioP2;P2;SDS_P1;SDS_P2;PMS_P1;PMS_P2;Temp;Humidity;BMP_temperature;BMP_pressure;BME280_temperature;BME280_humidity;BME280_pressure;Samples;Min_cycle;Max_cycle;Signal;HPM_P1;HPM_P2
2022/07/16 00:03:15;;;;;;;4.93;1.90;;;;;;;17.12;59.31;96420.25;5115633;28;20081;-64
2022/07/16 00:05:45;;;;;;;1.73;1.55;;;;;;;17.09;59.89;96420.47;5115200;28;20083;-64
2022/07/16 00:08:12;;;;;;;2.03;1.48;;;;;;;17.09;60.34;96420.47;5115225;28;20490;-63
2022/07/16 00:10:40;;;;;;;2.40;1.95;;;;;;;17.03;60.26;96418.19;5115340;28;20517;-63
2022/07/16 00:13:07;;;;;;;3.88;1.60;;;;;;;17.02;60.38;96417.34;5115054;28;20043;-63
2022/07/16 00:15:34;;;;;;;1.88;1.67;;;;;;;17.00;60.30;96419.25;5114946;28;20047;-64
2022/07/16 00:20:46;;;;;;;2.90;1.73;;;;;;;16.92;60.47;96422.38;5115069;28;20059;-63
2022/07/16 00:23:15;;;;;;;6.78;1.90;;;;;;;16.90;60.67;96419.00;5115171;28;20077;-63
2022/07/16 00:25:42;;;;;;;3.03;1.60;;;;;;;16.84;60.05;96418.56;5114747;28;20059;-63
2022/07/16 00:28:09;;;;;;;3.45;1.80;;;;;;;16.87;60.64;96421.00;5114707;28;20130;-63
2022/07/16 00:30:37;;;;;;;2.90;1.67;;;;;;;16.81;60.66;96416.97;5114605;28;20467;-64
2022/07/16 00:33:04;;;;;;;4.40;1.77;;;;;;;16.77;60.66;96423.41;5113834;28;20047;-64
2022/07/16 00:35:31;;;;;;;7.30;2.13;;;;;;;16.75;60.46;96420.00;5114658;28;20146;-63
2022/07/16 00:37:59;;;;;;;2.60;2.17;;;;;;;16.73;60.10;96417.47;5114688;28;20066;-63
2022/07/16 00:40:27;;;;;;;2.33;2.03;;;;;;;16.77;60.96;96426.88;5114612;28;20052;-63
2022/07/16 00:42:54;;;;;;;3.60;2.05;;;;;;;16.78;60.95;96422.44;5114315;28;20101;-63
2022/07/16 00:45:21;;;;;;;3.92;2.13;;;;;;;16.73;61.45;96420.09;5114297;28;20046;-63
2022/07/16 00:47:49;;;;;;;4.88;1.95;;;;;;;16.67;61.30;96425.78;5114214;28;20044;-63
2022/07/16 00:50:16;;;;;;;1.80;1.70;;;;;;;16.61;61.91;96424.38;5114269;28;20048;-62
2022/07/16 00:52:43;;;;;;;2.00;1.80;;;;;;;16.55;62.08;96424.78;5114464;28;20048;-62
2022/07/16 00:55:12;;;;;;;4.72;1.85;;;;;;;16.53;62.16;96416.13;5114221;28;20493;-63
2022/07/16 00:57:39;;;;;;;4.43;2.17;;;;;;;16.51;61.82;96425.91;5114176;28;20079;-63
2022/07/16 01:00:08;;;;;;;5.05;1.90;;;;;;;16.44;61.59;96420.19;5114127;28;20086;-63
2022/07/16 01:02:36;;;;;;;6.20;2.20;;;;;;;16.36;62.22;96420.69;5114164;28;20048;-63
2022/07/16 01:05:03;;;;;;;2.70;1.75;;;;;;;16.37;62.09;96413.59;5114411;28;20135;-63
2022/07/16 01:07:31;;;;;;;2.22;1.90;;;;;;;16.34;62.21;96413.81;5114257;28;20148;-63
2022/07/16 01:10:00;;;;;;;2.30;1.80;;;;;;;16.35;62.52;96413.72;5114068;28;20050;-63
2022/07/16 01:12:28;;;;;;;4.70;2.00;;;;;;;16.36;62.33;96412.75;5114004;28;20044;-63
2022/07/16 01:14:57;;;;;;;2.22;1.85;;;;;;;16.38;62.40;96408.22;5114041;28;20051;-63
2022/07/16 01:17:24;;;;;;;7.53;2.13;;;;;;;16.39;62.03;96411.72;5113800;28;20062;-63
2022/07/16 01:19:51;;;;;;;5.05;1.80;;;;;;;16.40;62.32;96398.41;5113992;28;20052;-63
2022/07/16 01:22:19;;;;;;;2.17;1.73;;;;;;;16.40;62.19;96403.69;5113825;28;20047;-62
2022/07/16 01:24:49;;;;;;;3.85;2.03;;;;;;;16.39;62.47;96407.28;5113843;28;20051;-63
2022/07/16 01:27:18;;;;;;;2.38;2.17;;;;;;;16.37;62.01;96406.53;5113763;28;20548;-63
2022/07/16 01:29:45;;;;;;;2.10;1.83;;;;;;;16.38;62.33;96402.13;5113730;28;20142;-63
2022/07/16 01:32:12;;;;;;;2.88;1.90;;;;;;;16.38;62.23;96394.19;5113714;28;20510;-63
2022/07/16 01:34:39;;;;;;;2.10;1.83;;;;;;;16.38;62.30;96394.19;5113574;28;20075;-62
2022/07/16 01:37:09;;;;;;;6.30;2.00;;;;;;;16.39;62.27;96402.00;5113549;28;20050;-62
2022/07/16 01:39:38;;;;;;;6.10;2.00;;;;;;;16.35;62.51;96400.53;5113679;28;20405;-63
2022/07/16 01:42:10;;;;;;;2.05;1.88;;;;;;;16.32;62.49;96406.00;5113532;28;20050;-63
2022/07/16 01:44:39;;;;;;;2.83;2.00;;;;;;;16.27;62.69;96401.00;5119904;28;20461;-63
2022/07/16 01:47:08;;;;;;;2.22;2.00;;;;;;;16.28;62.69;96404.47;5120202;28;20123;-64
2022/07/16 01:49:37;;;;;;;2.92;1.92;;;;;;;16.24;62.57;96403.84;5120507;27;20047;-63
2022/07/16 01:52:06;;;;;;;4.57;1.88;;;;;;;16.24;63.09;96409.13;5120376;27;20464;-64
2022/07/16 01:54:34;;;;;;;3.97;1.73;;;;;;;16.13;63.32;96399.22;5120352;27;20102;-63
2022/07/16 01:57:01;;;;;;;2.88;1.80;;;;;;;16.11;63.33;96401.13;5120346;27;20048;-63
2022/07/16 01:59:29;;;;;;;2.22;1.88;;;;;;;16.08;63.80;96408.38;5120265;27;20100;-63
2022/07/16 02:01:57;;;;;;;1.77;1.60;;;;;;;16.03;63.83;96404.25;5120168;27;20105;-63
2022/07/16 02:04:24;;;;;;;2.92;1.85;;;;;;;16.07;63.66;96409.31;5120129;27;20071;-63
2022/07/16 02:06:51;;;;;;;2.53;2.08;;;;;;;16.08;63.66;96409.25;5120093;27;20106;-63
2022/07/16 02:09:18;;;;;;;3.50;1.77;;;;;;;16.08;63.81;96405.75;5120130;27;20086;-62
2022/07/16 02:11:45;;;;;;;3.30;2.20;;;;;;;16.02;63.83;96409.63;5120027;27;20096;-62
2022/07/16 02:14:12;;;;;;;6.85;1.80;;;;;;;15.98;64.02;96416.03;5120123;27;20130;-63
2022/07/16 02:16:40;;;;;;;2.97;2.03;;;;;;;15.96;64.10;96409.97;5120082;27;20395;-62
2022/07/16 02:19:08;;;;;;;2.53;1.90;;;;;;;15.81;64.72;96409.97;5120222;27;20370;-63
2022/07/16 02:21:35;;;;;;;4.50;1.70;;;;;;;15.85;64.75;96414.09;5119954;28;20043;-63
2022/07/16 02:24:03;;;;;;;5.80;2.10;;;;;;;15.79;64.81;96409.19;5120029;27;20090;-63
2022/07/16 02:26:30;;;;;;;2.92;1.75;;;;;;;15.77;65.02;96408.44;5119944;27;20055;-63
2022/07/16 02:28:57;;;;;;;1.92;1.70;;;;;;;15.76;64.90;96406.75;5120217;27;20050;-63
2022/07/16 02:31:24;;;;;;;2.85;1.90;;;;;;;15.75;65.10;96405.88;5119982;27;20455;-62
2022/07/16 02:33:53;;;;;;;3.40;2.03;;;;;;;15.78;65.13;96402.25;5120040;28;20146;-62
2022/07/16 02:36:20;;;;;;;4.85;2.17;;;;;;;15.78;65.15;96402.25;5119836;27;20047;-62
2022/07/16 02:38:47;;;;;;;2.83;2.05;;;;;;;15.77;65.07;96404.03;5119821;27;20515;-63
2022/07/16 02:41:14;;;;;;;2.25;1.90;;;;;;;15.76;64.95;96399.69;5119832;28;20047;-63
2022/07/16 02:43:41;;;;;;;4.63;2.05;;;;;;;15.75;64.95;96402.44;5119806;27;20449;-62
2022/07/16 02:46:08;;;;;;;5.40;2.10;;;;;;;15.70;64.92;96405.34;5119944;27;20473;-63
2022/07/16 03:01:22;;;;;;;4.00;2.15;;;;;;;16.39;62.65;96409.94;5096467;27;2174976;-62
2022/07/16 03:03:49;;;;;;;3.42;1.80;;;;;;;16.27;63.00;96410.69;5152124;27;20137;-63
2022/07/16 03:06:17;;;;;;;3.15;2.05;;;;;;;16.11;63.48;96422.25;5151876;27;20050;-62
2022/07/16 03:08:44;;;;;;;3.20;2.17;;;;;;;15.99;64.22;96415.94;5151732;27;20043;-63
2022/07/16 03:11:11;;;;;;;2.35;2.15;;;;;;;15.93;64.42;96421.56;5151985;27;20476;-62
2022/07/16 03:13:38;;;;;;;6.82;2.08;;;;;;;15.86;64.49;96415.78;5151746;27;20092;-63
2022/07/16 03:16:05;;;;;;;7.13;2.10;;;;;;;15.78;64.94;96413.63;5151799;27;20050;-62
2022/07/16 03:18:34;;;;;;;9.80;2.08;;;;;;;15.77;65.23;96413.72;5151684;27;20082;-62
2022/07/16 03:21:01;;;;;;;5.85;1.88;;;;;;;15.78;65.23;96412.78;5151602;27;20049;-62
2022/07/16 03:23:28;;;;;;;3.40;2.00;;;;;;;15.77;64.91;96409.28;5151480;27;20047;-62
2022/07/16 03:25:55;;;;;;;5.80;1.73;;;;;;;15.77;65.11;96411.06;5151574;27;20050;-62
2022/07/16 03:28:22;;;;;;;7.32;2.17;;;;;;;15.74;65.23;96412.13;5151550;27;20079;-62
2022/07/16 03:30:49;;;;;;;2.80;2.00;;;;;;;15.74;65.89;96412.13;5151432;27;20134;-62
2022/07/16 03:33:16;;;;;;;3.05;2.05;;;;;;;15.72;66.13;96415.78;5151287;27;20541;-62
2022/07/16 03:35:45;;;;;;;2.13;1.70;;;;;;;15.72;65.95;96411.38;5151361;27;20080;-62
2022/07/16 03:40:56;;;;;;;2.65;1.73;;;;;;;15.77;65.90;96414.56;5151466;27;20099;-61
2022/07/16 03:43:23;;;;;;;2.13;1.90;;;;;;;15.92;65.70;96419.84;5151297;27;20043;-61
2022/07/16 03:45:50;;;;;;;3.10;1.90;;;;;;;16.11;65.16;96411.69;5151256;27;20122;-63
2022/07/16 03:48:17;;;;;;;8.23;2.10;;;;;;;16.39;64.40;96411.72;5151042;27;20047;-62
2022/07/16 03:50:46;;;;;;;12.65;2.38;;;;;;;16.75;63.45;96414.72;5151195;27;20086;-62
2022/07/16 03:53:13;;;;;;;10.23;1.63;;;;;;;17.22;62.25;96409.06;5151132;27;20511;-62
2022/07/16 03:55:40;;;;;;;10.32;1.73;;;;;;;17.68;61.40;96413.03;5151054;27;20070;-63
2022/07/16 03:58:07;;;;;;;3.15;1.70;;;;;;;18.17;60.04;96415.84;5150808;27;20096;-62
2022/07/16 04:00:34;;;;;;;1.58;1.48;;;;;;;18.64;58.79;96416.06;5146876;27;20438;-62
2022/07/16 04:03:01;;;;;;;2.25;1.55;;;;;;;19.14;57.36;96415.09;5136996;27;20103;-62
2022/07/16 04:05:28;;;;;;;5.03;1.63;;;;;;;19.59;56.27;96410.88;5137249;27;20068;-63
2022/07/16 04:07:57;;;;;;;1.65;1.55;;;;;;;20.06;54.85;96424.09;5136919;27;20043;-63
2022/07/16 04:10:24;;;;;;;6.80;1.67;;;;;;;20.48;53.73;96416.44;5136905;27;20491;-63
2022/07/16 04:12:52;;;;;;;2.20;1.58;;;;;;;20.88;52.96;96412.34;5136857;27;20445;-63
2022/07/16 04:15:19;;;;;;;3.05;1.25;;;;;;;21.28;51.98;96414.41;5136770;27;20099;-63
2022/07/16 04:17:46;;;;;;;6.57;1.45;;;;;;;21.73;51.58;96409.78;5136794;27;20050;-62
2022/07/16 04:20:13;;;;;;;3.35;1.50;;;;;;;22.17;50.16;96409.59;5136727;27;20047;-63
2022/07/16 04:22:40;;;;;;;1.73;1.17;;;;;;;22.55;50.16;96415.16;5136634;27;20043;-63
2022/07/16 04:25:10;;;;;;;2.92;1.20;;;;;;;22.87;48.37;96423.94;5136593;27;20090;-63
2022/07/16 04:27:37;;;;;;;3.08;1.30;;;;;;;23.19;47.80;96417.53;5136640;27;20055;-63
2022/07/16 04:30:05;;;;;;;1.58;1.48;;;;;;;23.53;47.15;96418.06;5136447;27;20047;-63
2022/07/16 04:32:32;;;;;;;2.47;1.60;;;;;;;23.86;47.29;96423.91;5136593;27;20051;-63
2022/07/16 04:34:59;;;;;;;5.25;1.67;;;;;;;24.15;46.81;96419.47;5136620;27;20135;-63
2022/07/16 04:37:26;;;;;;;1.90;1.42;;;;;;;24.42;45.98;96420.47;5136356;27;20073;-63
2022/07/16 04:39:53;;;;;;;1.38;1.27;;;;;;;24.74;45.51;96419.16;5136378;27;20793;-63
2022/07/16 04:42:22;;;;;;;3.90;1.52;;;;;;;25.05;45.95;96424.22;5136437;27;20404;-63
2022/07/16 04:44:49;;;;;;;3.60;1.23;;;;;;;25.34;44.67;96414.22;5136364;27;20452;-63
2022/07/16 04:47:16;;;;;;;1.65;1.30;;;;;;;25.69;44.58;96411.69;5136268;27;20054;-63
2022/07/16 04:49:44;;;;;;;1.98;1.50;;;;;;;26.02;44.48;96422.59;5136353;27;20051;-63
2022/07/16 04:52:11;;;;;;;6.65;1.55;;;;;;;26.27;43.12;96414.66;5136142;27;20054;-63
2022/07/16 04:54:38;;;;;;;2.42;1.35;;;;;;;26.46;42.08;96424.31;5136228;27;20051;-63
2022/07/16 04:57:05;;;;;;;2.30;1.25;;;;;;;26.57;42.15;96423.19;5136159;27;20051;-63
2022/07/16 04:59:34;;;;;;;1.90;1.33;;;;;;;26.84;43.05;96418.59;5135799;27;20088;-63
2022/07/16 05:04:42;;;;;;;4.82;1.50;;;;;;;27.62;42.45;96425.53;5135144;27;20044;-63
2022/07/16 05:07:09;;;;;;;3.38;1.60;;;;;;;27.88;40.92;96424.53;5135785;27;20122;-63
2022/07/16 05:09:36;;;;;;;4.00;1.30;;;;;;;28.11;39.52;96418.44;5135901;27;20043;-63
2022/07/16 05:12:03;;;;;;;2.42;1.30;;;;;;;28.43;35.50;96429.25;5135180;27;20043;-63
2022/07/16 05:14:30;;;;;;;1.20;1.10;;;;;;;28.85;33.62;96422.66;5135171;27;20043;-63
2022/07/16 05:16:59;;;;;;;1.45;1.35;;;;;;;29.30;33.94;96418.53;5135707;27;20046;-63
2022/07/16 05:19:26;;;;;;;2.15;1.20;;;;;;;29.70;32.06;96419.22;5135602;27;20051;-63
2022/07/16 05:21:53;;;;;;;3.15;1.13;;;;;;;30.00;30.87;96419.25;5135556;27;20050;-63
2022/07/16 05:24:20;;;;;;;2.40;1.40;;;;;;;30.36;30.41;96420.41;5135358;27;20049;-63
2022/07/16 05:26:47;;;;;;;2.03;1.30;;;;;;;30.73;29.67;96422.31;5135389;27;20043;-63
2022/07/16 05:29:14;;;;;;;3.15;1.15;;;;;;;31.11;27.53;96434.78;5135176;27;20046;-63
2022/07/16 05:31:41;;;;;;;1.38;1.13;;;;;;;31.28;27.76;96432.69;5135301;27;20484;-63
2022/07/16 05:34:10;;;;;;;3.75;1.23;;;;;;;31.61;28.01;96434.03;5135356;27;20078;-63
2022/07/16 05:36:37;;;;;;;3.50;0.90;;;;;;;31.88;26.41;96436.94;5135232;27;20043;-63
2022/07/16 05:39:05;;;;;;;5.97;1.52;;;;;;;32.07;26.40;96443.56;5135613;27;20407;-63
2022/07/16 05:41:32;;;;;;;4.57;1.10;;;;;;;32.31;26.81;96433.28;5135198;27;20051;-63
2022/07/16 05:43:59;;;;;;;3.35;1.48;;;;;;;32.64;25.99;96437.22;5135308;27;20057;-62
2022/07/16 05:46:26;;;;;;;1.60;1.00;;;;;;;33.07;25.71;96438.03;5135044;27;20047;-63
2022/07/16 05:48:53;;;;;;;2.10;1.02;;;;;;;33.37;26.42;96445.75;5135111;27;20058;-63
2022/07/16 05:51:22;;;;;;;3.30;1.30;;;;;;;33.55;24.96;96447.06;5134908;27;20083;-63
2022/07/16 05:53:49;;;;;;;1.45;0.90;;;;;;;33.60;24.71;96442.72;5134979;27;20078;-63
2022/07/16 05:56:16;;;;;;;7.45;1.27;;;;;;;33.80;24.99;96447.28;5134824;27;20115;-62
2022/07/16 05:58:43;;;;;;;1.63;1.00;;;;;;;34.08;24.75;96451.66;5134851;27;20043;-62
2022/07/16 06:01:10;;;;;;;3.28;1.00;;;;;;;34.15;23.69;96446.22;5134608;27;20039;-62
2022/07/16 06:03:38;;;;;;;1.90;1.20;;;;;;;34.32;24.19;96452.03;5134872;27;20074;-62
2022/07/16 06:06:05;;;;;;;6.63;1.27;;;;;;;34.15;23.77;96448.94;5134588;27;20451;-63
2022/07/16 06:08:34;;;;;;;7.22;1.30;;;;;;;34.34;23.19;96443.69;5134658;27;20166;-62
2022/07/16 06:11:01;;;;;;;1.67;1.10;;;;;;;34.33;23.61;96445.56;5134409;27;20438;-62
2022/07/16 06:13:28;;;;;;;1.10;1.05;;;;;;;34.50;23.84;96445.09;5134473;27;20050;-62
2022/07/16 06:15:55;;;;;;;1.40;1.00;;;;;;;34.89;25.02;96442.47;5134442;27;20047;-63
2022/07/16 06:18:22;;;;;;;0.98;0.93;;;;;;;35.17;23.91;96443.97;5134436;27;20047;-62
2022/07/16 06:20:50;;;;;;;6.07;1.20;;;;;;;35.20;23.06;96437.28;5134364;27;20050;-62
2022/07/16 06:23:17;;;;;;;4.07;1.15;;;;;;;35.08;22.53;96432.53;5134242;27;20389;-62
2022/07/16 06:25:46;;;;;;;1.50;1.40;;;;;;;34.93;24.27;96435.53;5134275;27;20051;-62
2022/07/16 06:28:13;;;;;;;1.95;1.17;;;;;;;34.73;23.28;96431.03;5134529;27;20055;-62
2022/07/16 06:30:40;;;;;;;2.85;1.40;;;;;;;34.65;24.20;96436.69;5134237;27;20059;-62
2022/07/16 06:33:07;;;;;;;2.00;1.48;;;;;;;34.81;23.36;96434.53;5134343;27;20038;-62
2022/07/16 06:35:35;;;;;;;0.88;0.88;;;;;;;35.04;24.08;96434.84;5134259;27;20507;-62
2022/07/16 06:38:03;;;;;;;4.47;3.00;;;;;;;35.24;22.88;96431.19;5134368;27;20064;-62
2022/07/16 06:40:31;;;;;;;2.78;1.50;;;;;;;35.47;22.40;96427.09;5134321;27;20503;-62
2022/07/16 06:43:00;;;;;;;3.85;1.20;;;;;;;35.57;23.10;96426.56;5134196;27;20523;-62
2022/07/16 06:45:27;;;;;;;2.50;1.20;;;;;;;35.75;21.73;96427.72;5134264;27;20481;-62
2022/07/16 06:47:54;;;;;;;3.72;1.17;;;;;;;35.70;23.24;96430.28;5133997;28;20183;-62
2022/07/16 06:50:24;;;;;;;3.63;1.40;;;;;;;35.85;21.79;96427.22;5133957;28;20051;-62
2022/07/16 06:52:51;;;;;;;1.45;1.35;;;;;;;35.86;22.42;96429.72;5134055;28;20047;-62
2022/07/16 06:55:19;;;;;;;6.80;1.50;;;;;;;35.96;21.38;96428.38;5133949;28;20476;-62
2022/07/16 06:57:46;;;;;;;3.03;1.67;;;;;;;35.98;22.83;96426.25;5134110;28;20058;-62
2022/07/16 07:00:15;;;;;;;3.17;1.10;;;;;;;36.37;22.43;96432.38;5133904;28;20039;-62
2022/07/16 07:02:42;;;;;;;3.95;1.52;;;;;;;36.47;22.21;96428.28;5133920;28;20492;-62
2022/07/16 07:05:10;;;;;;;3.70;1.33;;;;;;;36.27;22.15;96421.19;5133906;28;20096;-62
2022/07/16 07:07:37;;;;;;;1.75;1.30;;;;;;;35.95;21.79;96429.41;5133886;28;20484;-62
2022/07/16 07:10:06;;;;;;;1.83;1.33;;;;;;;36.06;24.91;96420.53;5133893;28;20074;-62
2022/07/16 07:12:34;;;;;;;4.93;1.52;;;;;;;35.79;22.72;96429.75;5133790;28;20090;-62
2022/07/16 07:15:02;;;;;;;2.08;1.50;;;;;;;35.61;22.34;96432.41;5133904;28;20501;-62
2022/07/16 07:17:30;;;;;;;2.63;1.42;;;;;;;35.28;22.63;96429.69;5133888;28;20477;-62
2022/07/16 07:19:59;;;;;;;2.42;1.20;;;;;;;35.24;23.76;96423.06;5133865;28;20062;-62
2022/07/16 07:22:26;;;;;;;6.95;1.55;;;;;;;35.63;23.69;96427.56;5133738;28;20043;-62
2022/07/16 07:24:53;;;;;;;2.67;1.30;;;;;;;35.79;23.21;96421.59;5133723;28;20044;-62
2022/07/16 07:27:20;;;;;;;3.45;1.40;;;;;;;36.02;21.39;96427.47;5133767;28;20043;-62
2022/07/16 07:29:47;;;;;;;4.90;1.30;;;;;;;35.95;23.31;96432.13;5134060;28;20047;-62
2022/07/16 07:32:15;;;;;;;2.58;1.50;;;;;;;35.76;24.07;96429.38;5133482;28;20623;-62
2022/07/16 07:34:43;;;;;;;7.35;1.50;;;;;;;35.72;22.80;96441.78;5133600;28;20046;-62
2022/07/16 07:37:11;;;;;;;3.80;1.65;;;;;;;36.03;23.25;96434.59;5136562;27;20092;-62
2022/07/16 07:39:38;;;;;;;3.45;1.48;;;;;;;36.33;23.28;96433.88;5137478;27;20476;-62
2022/07/16 07:42:05;;;;;;;1.77;1.10;;;;;;;36.61;21.95;96440.69;5137499;27;20070;-62
2022/07/16 07:44:32;;;;;;;6.40;1.20;;;;;;;36.86;21.77;96430.75;5137515;27;20051;-62
2022/07/16 07:46:59;;;;;;;3.50;1.50;;;;;;;37.04;21.73;96438.91;5137303;27;20134;-62
2022/07/16 07:49:27;;;;;;;4.45;1.60;;;;;;;37.05;20.88;96442.47;5137295;27;20043;-62
2022/07/16 07:51:56;;;;;;;3.50;1.95;;;;;;;37.22;21.04;96439.94;5137340;27;20090;-62
2022/07/16 07:54:24;;;;;;;5.63;1.47;;;;;;;37.32;20.80;96441.25;5137222;27;20043;-62
2022/07/16 07:56:52;;;;;;;1.40;1.30;;;;;;;37.57;20.87;96446.53;5137188;27;20046;-63
2022/07/16 07:59:19;;;;;;;7.70;1.40;;;;;;;37.89;19.78;96446.22;5136818;27;20498;-62
2022/07/16 08:01:46;;;;;;;4.30;1.30;;;;;;;37.90;19.71;96449.81;5137144;27;20526;-63
2022/07/16 08:04:14;;;;;;;6.82;1.40;;;;;;;37.97;19.54;96450.50;5137058;27;20403;-62
2022/07/16 08:06:41;;;;;;;2.05;1.33;;;;;;;38.01;19.42;96443.50;5136964;27;20523;-62
2022/07/16 08:09:10;;;;;;;4.00;1.15;;;;;;;37.84;20.59;96445.28;5136918;27;20050;-62
2022/07/16 08:11:38;;;;;;;2.08;1.50;;;;;;;38.04;21.48;96443.03;5136882;27;20054;-62
2022/07/16 08:14:05;;;;;;;2.13;1.30;;;;;;;37.92;21.80;96442.22;5136872;27;20100;-62
2022/07/16 08:16:32;;;;;;;4.05;1.55;;;;;;;37.96;19.81;96445.28;5136846;27;20044;-63
2022/07/16 08:19:00;;;;;;;2.28;1.45;;;;;;;37.69;19.93;96437.56;5136732;27;20385;-62
2022/07/16 08:21:28;;;;;;;9.30;1.90;;;;;;;37.41;19.00;96435.22;5136712;27;20051;-62
2022/07/16 08:26:41;;;;;;;6.45;1.80;;;;;;;37.44;20.28;96433.13;5136894;27;20124;-62
2022/07/16 08:29:12;;;;;;;6.40;1.75;;;;;;;37.62;20.68;96438.47;5136496;27;20467;-62
2022/07/16 08:31:39;;;;;;;8.85;1.65;;;;;;;37.57;20.68;96427.44;5136479;27;20055;-62
2022/07/16 08:34:07;;;;;;;6.60;1.63;;;;;;;37.93;20.11;96422.84;5136377;27;20043;-62
2022/07/16 08:36:36;;;;;;;2.60;1.70;;;;;;;38.20;20.35;96427.06;5136508;27;20047;-62
2022/07/16 08:39:03;;;;;;;2.80;1.38;;;;;;;38.37;19.81;96431.78;5136375;27;20395;-61
2022/07/16 08:41:32;;;;;;;1.90;1.63;;;;;;;38.42;19.54;96434.59;5136252;27;20050;-63
2022/07/16 08:44:01;;;;;;;4.95;1.58;;;;;;;38.20;19.79;96418.88;5136288;27;20050;-62
2022/07/16 08:46:29;;;;;;;5.20;1.80;;;;;;;38.35;20.07;96423.81;5136277;27;20126;-63
2022/07/16 08:48:57;;;;;;;5.05;1.58;;;;;;;38.30;19.84;96430.00;5136351;27;20519;-62
2022/07/16 08:51:33;;;;;;;3.92;1.80;;;;;;;38.20;19.68;96421.59;5136244;27;20108;-63
2022/07/16 08:54:05;;;;;;;7.57;1.65;;;;;;;38.23;19.95;96421.13;5136158;27;20047;-63
2022/07/16 08:56:33;;;;;;;4.75;1.70;;;;;;;38.41;20.49;96432.94;5136055;27;20047;-62
2022/07/16 08:59:02;;;;;;;3.00;1.70;;;;;;;38.33;19.49;96438.75;5135885;27;20134;-62
2022/07/16 09:01:30;;;;;;;3.63;1.80;;;;;;;38.43;19.94;96423.44;5135805;27;20130;-63
2022/07/16 09:03:58;;;;;;;4.82;2.00;;;;;;;38.57;20.09;96431.38;5136096;27;20400;-62
2022/07/16 09:06:25;;;;;;;1.60;1.50;;;;;;;38.30;20.72;96427.28;5136007;27;20045;-62
2022/07/16 09:08:53;;;;;;;5.45;1.73;;;;;;;37.83;19.93;96432.72;5135679;27;20051;-62
2022/07/16 09:11:22;;;;;;;4.03;1.60;;;;;;;37.97;20.04;96427.84;5135641;27;20047;-62
2022/07/16 09:14:05;;;;;;;2.10;1.60;;;;;;;38.14;19.47;96425.25;5135692;27;20442;-62
2022/07/16 09:16:34;;;;;;;2.40;1.63;;;;;;;38.17;20.93;96430.25;5135072;27;20066;-62
2022/07/16 09:19:08;;;;;;;7.22;2.00;;;;;;;38.04;20.36;96426.66;5135578;27;20403;-62
2022/07/16 09:21:37;;;;;;;3.38;1.45;;;;;;;38.10;20.10;96430.34;5135566;27;20043;-62
2022/07/16 09:24:05;;;;;;;2.80;1.60;;;;;;;38.06;20.59;96426.44;5135595;27;20481;-63
2022/07/16 09:26:32;;;;;;;4.22;1.95;;;;;;;38.01;19.37;96438.06;5135465;27;20043;-62
2022/07/16 09:29:05;;;;;;;5.80;1.83;;;;;;;37.88;19.96;96427.38;5135483;27;20373;-62
2022/07/16 09:31:36;;;;;;;3.35;1.73;;;;;;;37.98;19.59;96429.53;5135332;27;20051;-62
2022/07/16 09:34:11;;;;;;;3.97;1.83;;;;;;;37.93;19.64;96430.25;5135419;27;20043;-62
2022/07/16 09:36:40;;;;;;;5.65;1.70;;;;;;;37.78;19.43;96437.00;5135169;27;20047;-62
2022/07/16 09:39:09;;;;;;;7.43;1.93;;;;;;;37.82;19.90;96428.31;5135107;27;20078;-62
2022/07/16 09:41:44;;;;;;;3.88;1.60;;;;;;;38.05;20.58;96432.97;5135049;27;20051;-63
2022/07/16 09:44:18;;;;;;;3.28;2.08;;;;;;;38.10;19.45;96433.06;5135058;27;20043;-62
2022/07/16 09:47:03;;;;;;;3.53;1.90;;;;;;;38.23;19.02;96428.47;5134966;27;20046;-62
2022/07/16 09:49:34;;;;;;;4.20;1.80;;;;;;;38.48;19.00;96444.56;5135259;27;20074;-63
2022/07/16 09:52:01;;;;;;;5.28;1.75;;;;;;;38.33;19.18;96436.88;5134954;27;20047;-63
2022/07/16 09:54:30;;;;;;;6.30;1.85;;;;;;;38.10;18.90;96440.44;5134982;27;20544;-62
2022/07/16 09:57:15;;;;;;;6.67;1.60;;;;;;;37.90;18.89;96436.16;5135026;27;20104;-63
2022/07/16 09:59:45;;;;;;;6.13;1.55;;;;;;;38.07;19.98;96438.19;5134097;27;20828;-62
2022/07/16 10:02:14;;;;;;;4.03;1.67;;;;;;;37.95;19.69;96432.72;5134764;27;20407;-62
2022/07/16 10:04:41;;;;;;;7.20;1.80;;;;;;;37.78;19.67;96436.16;5134793;27;20061;-62
2022/07/16 10:07:09;;;;;;;4.00;1.50;;;;;;;37.77;19.37;96438.03;5134623;27;20488;-62
2022/07/16 10:09:37;;;;;;;3.58;2.00;;;;;;;37.86;19.62;96434.97;5134636;27;20047;-62
2022/07/16 10:12:08;;;;;;;4.35;1.80;;;;;;;38.05;19.15;96427.50;5134569;27;20047;-62
2022/07/16 10:14:37;;;;;;;3.08;1.75;;;;;;;38.10;19.82;96434.97;5134607;27;20051;-62
2022/07/16 10:17:16;;;;;;;6.38;2.05;;;;;;;38.23;19.00;96423.00;5134715;27;20047;-62
2022/07/16 10:19:45;;;;;;;2.87;1.70;;;;;;;38.26;19.59;96434.28;5134699;27;20544;-62
2022/07/16 10:22:20;;;;;;;5.38;1.70;;;;;;;38.23;18.60;96426.56;5134515;27;20075;-62
2022/07/16 10:24:50;;;;;;;4.50;1.55;;;;;;;38.30;18.44;96432.72;5134403;27;20058;-62
2022/07/16 10:27:26;;;;;;;5.60;1.80;;;;;;;38.10;17.67;96424.06;5134552;27;20043;-62
2022/07/16 10:30:09;;;;;;;1.60;1.50;;;;;;;38.03;18.80;96430.47;5134397;27;20122;-62
2022/07/16 10:33:19;;;;;;;4.20;1.40;;;;;;;37.98;18.21;96426.78;5134236;27;20046;-62
2022/07/16 10:35:50;;;;;;;2.72;1.73;;;;;;;37.64;19.31;96430.06;5134227;27;20047;-62
2022/07/16 10:38:21;;;;;;;8.75;2.00;;;;;;;37.54;19.67;96425.19;5134133;27;20050;-62
2022/07/16 10:41:07;;;;;;;8.10;2.10;;;;;;;37.62;19.30;96434.94;5134176;27;20047;-62
2022/07/16 10:43:34;;;;;;;3.22;1.92;;;;;;;37.66;20.05;96427.94;5134152;27;20103;-62
2022/07/16 10:46:03;;;;;;;1.88;1.70;;;;;;;37.72;20.13;96427.03;5134050;27;20043;-62
2022/07/16 10:48:51;;;;;;;4.93;1.70;;;;;;;37.70;19.95;96429.16;5134031;27;20411;-62
2022/07/16 10:51:21;;;;;;;3.05;1.60;;;;;;;37.51;20.49;96409.28;5133972;28;20586;-62
2022/07/16 10:54:21;;;;;;;3.88;1.75;;;;;;;37.43;19.92;96424.09;5133853;28;20095;-62
2022/07/16 10:56:50;;;;;;;3.13;1.70;;;;;;;37.44;19.99;96414.88;5134094;28;20095;-62
2022/07/16 10:59:20;;;;;;;3.60;1.60;;;;;;;37.33;19.31;96413.78;5133596;28;20138;-62
2022/07/16 11:01:51;;;;;;;2.28;1.50;;;;;;;36.52;20.84;96407.50;5133915;28;20449;-62
2022/07/16 11:04:27;;;;;;;2.35;1.63;;;;;;;36.69;20.63;96409.59;5133968;28;20043;-62
2022/07/16 11:06:58;;;;;;;3.20;1.73;;;;;;;36.98;21.21;96414.44;5133997;28;20521;-62
2022/07/16 11:09:26;;;;;;;4.55;2.05;;;;;;;36.86;20.04;96419.84;5133654;28;20519;-62
2022/07/16 11:11:54;;;;;;;3.28;1.60;;;;;;;36.85;19.51;96412.75;5136255;27;20138;-62
2022/07/16 11:14:30;;;;;;;2.40;1.60;;;;;;;36.78;19.64;96410.94;5137948;27;20050;-62
2022/07/16 11:16:58;;;;;;;2.75;1.52;;;;;;;36.94;20.06;96414.09;5138060;27;20047;-62
2022/07/16 11:19:26;;;;;;;3.67;1.60;;;;;;;36.94;19.58;96416.81;5137920;27;20093;-62
2022/07/16 11:21:57;;;;;;;4.70;1.55;;;;;;;36.83;19.60;96414.91;5119750;27;20043;-61
2022/07/16 11:24:25;;;;;;;2.78;1.70;;;;;;;36.90;19.35;96410.19;5137787;27;20411;-62
2022/07/16 11:26:52;;;;;;;6.97;1.48;;;;;;;36.97;19.30;96407.34;5119737;27;20096;-63
2022/07/16 11:29:21;;;;;;;7.82;1.40;;;;;;;37.04;19.63;96411.66;5137723;27;20416;-62
2022/07/16 11:31:49;;;;;;;5.07;1.83;;;;;;;37.13;20.08;96409.41;5137689;27;20492;-62
2022/07/16 11:34:18;;;;;;;4.88;1.90;;;;;;;37.14;19.24;96411.06;5137573;27;20404;-63
2022/07/16 11:36:48;;;;;;;2.63;1.33;;;;;;;37.12;19.18;96423.28;5137601;27;20039;-62
2022/07/16 11:39:19;;;;;;;2.10;1.50;;;;;;;36.78;19.34;96419.13;5137562;27;20043;-62
2022/07/16 11:41:48;;;;;;;3.90;1.70;;;;;;;36.39;18.99;96407.66;5137478;27;20453;-62
2022/07/16 11:44:16;;;;;;;7.88;1.55;;;;;;;36.09;19.76;96417.38;5137778;27;20069;-62
2022/07/16 11:46:47;;;;;;;6.43;1.73;;;;;;;35.67;20.12;96415.22;5137548;27;20388;-62
2022/07/16 11:49:21;;;;;;;;;;;;;;;35.70;20.95;96416.69;5138113;27;20051;-62
2022/07/16 11:51:49;;;;;;;4.35;1.30;;;;;;;35.84;19.40;96411.97;5137260;27;19970;-62
2022/07/16 11:54:18;;;;;;;4.18;1.80;;;;;;;35.51;20.54;96411.16;5137347;27;20043;-62
2022/07/16 11:56:46;;;;;;;5.25;1.65;;;;;;;35.54;20.17;96407.97;5137285;27;20039;-62
2022/07/16 11:59:20;;;;;;;4.10;1.40;;;;;;;35.67;21.54;96416.03;5137124;27;20043;-62
2022/07/16 12:01:48;;;;;;;6.63;1.70;;;;;;;35.89;21.00;96418.38;5137226;27;20108;-62
2022/07/16 12:04:16;;;;;;;2.88;1.48;;;;;;;36.08;20.18;96412.16;5137122;27;20086;-62
2022/07/16 12:06:48;;;;;;;2.47;1.63;;;;;;;36.07;20.15;96419.47;5137107;27;20128;-62